createdAt,value
2023-04-05T00:01:08.632Z,1.87
2023-04-05T00:03:36.528Z,2.00
2023-04-05T00:06:05.536Z,2.00
2023-04-05T00:08:33.514Z,2.10
2023-04-05T00:11:01.286Z,2.03
2023-04-05T00:13:29.258Z,1.90
2023-04-05T00:15:58.426Z,1.60
2023-04-05T00:18:28.217Z,1.73
2023-04-05T00:20:56.166Z,1.83
2023-04-05T00:23:25.694Z,1.97
2023-04-05T00:25:53.870Z,2.00
2023-04-05T00:28:21.677Z,1.80
2023-04-05T00:30:49.441Z,2.00
2023-04-05T00:33:17.249Z,1.90
2023-04-05T00:35:46.349Z,1.93
2023-04-05T00:38:14.082Z,1.90
2023-04-05T00:40:41.977Z,2.10
2023-04-05T00:43:09.966Z,1.93
2023-04-05T00:45:38.266Z,1.90
2023-04-05T00:48:06.953Z,1.90
2023-04-05T00:50:35.120Z,2.27
2023-04-05T00:53:04.694Z,2.10
2023-04-05T00:55:34.096Z,2.00
2023-04-05T00:58:01.966Z,2.00
2023-04-05T01:00:30.275Z,1.90
2023-04-05T01:03:02.386Z,2.20
2023-04-05T01:05:37.197Z,2.00
2023-04-05T01:08:10.272Z,2.00
2023-04-05T01:10:41.041Z,2.17
2023-04-05T01:13:09.001Z,1.80
2023-04-05T01:15:36.777Z,2.00
2023-04-05T01:18:04.980Z,2.50
2023-04-05T01:20:35.667Z,1.90
2023-04-05T01:23:20.820Z,2.20
2023-04-05T01:26:12.903Z,1.97
2023-04-05T01:29:20.088Z,2.10
2023-04-05T01:31:52.108Z,2.23
2023-04-05T01:34:26.632Z,2.10
2023-04-05T01:36:57.187Z,1.87
2023-04-05T01:39:25.731Z,2.00
2023-04-05T01:41:53.492Z,2.00
2023-04-05T01:44:22.612Z,2.10
2023-04-05T01:46:50.490Z,1.87
2023-04-05T01:49:18.306Z,1.87
2023-04-05T01:51:46.414Z,2.10
2023-04-05T01:54:14.410Z,1.90
2023-04-05T01:56:42.158Z,2.10
2023-04-05T01:59:09.967Z,1.90
2023-04-05T02:01:39.107Z,2.00
2023-04-05T02:04:07.031Z,2.27
2023-04-05T02:06:34.777Z,1.87
2023-04-05T02:09:02.610Z,1.90
2023-04-05T02:11:30.452Z,2.20
2023-04-05T02:13:58.182Z,1.90
2023-04-05T02:16:27.306Z,2.00
2023-04-05T02:18:58.034Z,2.00
2023-04-05T02:21:26.204Z,1.87
2023-04-05T02:23:54.581Z,2.00
2023-04-05T02:26:22.393Z,2.03
2023-04-05T02:28:50.240Z,2.00
2023-04-05T02:31:17.975Z,1.83
2023-04-05T02:33:46.725Z,1.77
2023-04-05T02:36:15.882Z,2.10
2023-04-05T02:38:43.673Z,1.90
2023-04-05T02:41:12.783Z,1.93
2023-04-05T02:43:40.511Z,2.00
2023-04-05T02:46:08.392Z,2.00
2023-04-05T02:48:36.423Z,2.00
2023-04-05T02:51:04.283Z,1.70
2023-04-05T02:53:33.353Z,1.90
2023-04-05T02:56:01.088Z,2.13
2023-04-05T02:58:28.897Z,2.33
2023-04-05T03:00:56.702Z,2.10
2023-04-05T03:03:24.818Z,2.37
2023-04-05T03:06:00.441Z,2.27
2023-04-05T03:08:28.757Z,2.10
2023-04-05T03:10:57.863Z,1.90
2023-04-05T03:13:25.770Z,2.13
2023-04-05T03:15:54.942Z,2.13
2023-04-05T03:18:25.694Z,2.13
2023-04-05T03:20:56.812Z,2.50
2023-04-05T03:23:27.291Z,2.20
2023-04-05T03:25:59.250Z,2.70
2023-04-05T03:28:27.225Z,2.30
2023-04-05T03:30:55.351Z,2.17
2023-04-05T03:33:23.355Z,2.37
2023-04-05T03:35:51.149Z,2.20
2023-04-05T03:38:19.070Z,2.17
2023-04-05T03:40:46.904Z,1.90
2023-04-05T03:43:16.763Z,2.00
2023-04-05T03:45:44.498Z,1.73
2023-04-05T03:48:12.285Z,1.93
2023-04-05T03:50:39.979Z,2.10
2023-04-05T03:53:07.785Z,1.90
2023-04-05T03:55:35.681Z,2.30
2023-04-05T03:58:03.496Z,1.97
2023-04-05T04:00:32.622Z,1.67
2023-04-05T04:03:00.412Z,1.77
2023-04-05T04:05:28.264Z,2.10
2023-04-05T04:07:56.012Z,1.90
2023-04-05T04:10:23.812Z,1.90
2023-04-05T04:12:51.634Z,2.00
2023-04-05T04:15:19.481Z,2.27
2023-04-05T04:17:48.695Z,2.20
2023-04-05T04:20:16.657Z,2.40
2023-04-05T04:22:45.841Z,2.13
2023-04-05T04:25:16.797Z,2.20
2023-04-05T04:27:46.650Z,2.47
2023-04-05T04:30:15.788Z,2.80
2023-04-05T04:32:54.641Z,2.93
2023-04-05T04:35:25.844Z,2.60
2023-04-05T04:37:55.499Z,2.30
2023-04-05T04:40:25.889Z,2.70
2023-04-05T04:42:54.808Z,2.50
2023-04-05T04:45:22.572Z,2.37
2023-04-05T04:47:53.496Z,2.30
2023-04-05T04:50:23.745Z,2.10
2023-04-05T04:52:51.457Z,2.07
2023-04-05T04:55:25.124Z,2.10
2023-04-05T04:57:53.073Z,2.07
2023-04-05T05:00:21.715Z,2.57
2023-04-05T05:02:49.580Z,2.20
2023-04-05T05:05:17.466Z,2.47
2023-04-05T05:07:46.510Z,2.60
2023-04-05T05:10:16.314Z,3.10
2023-04-05T05:12:44.263Z,2.80
2023-04-05T05:15:12.804Z,2.33
2023-04-05T05:17:40.876Z,2.60
2023-04-05T05:20:11.292Z,2.50
2023-04-05T05:22:39.599Z,2.50
2023-04-05T05:25:12.378Z,2.70
2023-04-05T05:27:40.171Z,2.63
2023-04-05T05:30:09.135Z,2.77
2023-04-05T05:32:37.004Z,2.80
2023-04-05T05:35:05.349Z,2.70
2023-04-05T05:37:33.953Z,2.60
2023-04-05T05:40:02.143Z,2.43
2023-04-05T05:42:32.574Z,2.60
2023-04-05T05:45:04.336Z,2.80
2023-04-05T05:47:32.193Z,2.90
2023-04-05T05:50:00.133Z,2.60
2023-04-05T05:52:27.873Z,2.90
2023-04-05T05:54:55.638Z,2.63
2023-04-05T05:57:23.478Z,2.90
2023-04-05T05:59:52.713Z,2.97
2023-04-05T06:02:20.565Z,3.17
2023-04-05T06:04:49.499Z,3.40
2023-04-05T06:07:17.329Z,2.70
2023-04-05T06:09:45.766Z,3.30
2023-04-05T06:12:13.505Z,2.63
2023-04-05T06:14:41.275Z,3.43
2023-04-05T06:17:10.474Z,2.90
2023-04-05T06:19:38.296Z,2.93
2023-04-05T06:22:06.143Z,2.80
2023-04-05T06:24:34.122Z,2.97
2023-04-05T06:27:02.255Z,3.17
2023-04-05T06:29:31.209Z,3.17
2023-04-05T06:31:59.219Z,3.03
2023-04-05T06:34:28.422Z,2.97
2023-04-05T06:36:56.689Z,3.00
2023-04-05T06:39:24.473Z,3.13
2023-04-05T06:41:52.188Z,2.70
2023-04-05T06:44:19.943Z,3.20
2023-04-05T06:46:47.845Z,3.00
2023-04-05T06:49:15.635Z,3.10
2023-04-05T06:51:44.696Z,3.03
2023-04-05T06:54:12.487Z,2.67
2023-04-05T06:56:40.363Z,2.73
2023-04-05T06:59:08.152Z,2.93
2023-04-05T07:01:36.042Z,2.90
2023-04-05T07:04:03.883Z,2.90
2023-04-05T07:06:33.906Z,2.60
2023-04-05T07:09:04.066Z,3.00
2023-04-05T07:11:32.753Z,2.90
2023-04-05T07:14:01.008Z,2.73
2023-04-05T07:16:29.043Z,3.03
2023-04-05T07:18:57.346Z,3.13
2023-04-05T07:21:25.309Z,2.63
2023-04-05T07:23:55.999Z,2.87
2023-04-05T07:26:25.110Z,2.57
2023-04-05T07:28:53.487Z,2.90
2023-04-05T07:31:21.283Z,3.10
2023-04-05T07:33:49.102Z,3.03
2023-04-05T07:36:17.175Z,3.20
2023-04-05T07:38:46.082Z,2.80
2023-04-05T07:41:16.796Z,3.10
2023-04-05T07:43:45.936Z,2.77
2023-04-05T07:46:13.916Z,2.87
2023-04-05T07:48:41.774Z,3.40
2023-04-05T07:51:11.265Z,3.17
2023-04-05T07:53:39.121Z,2.83
2023-04-05T07:56:07.462Z,3.07
2023-04-05T07:58:35.697Z,2.90
2023-04-05T08:01:05.756Z,3.00
2023-04-05T08:03:35.101Z,2.70
2023-04-05T08:06:11.516Z,3.03
2023-04-05T08:08:39.309Z,2.73
2023-04-05T08:11:07.375Z,2.50
2023-04-05T08:13:36.738Z,2.70
2023-04-05T08:16:06.288Z,2.50
2023-04-05T08:18:34.104Z,2.50
2023-04-05T08:21:02.241Z,2.87
2023-04-05T08:23:30.024Z,2.57
2023-04-05T08:25:59.212Z,2.60
2023-04-05T08:28:26.946Z,2.67
2023-04-05T08:30:55.738Z,3.00
2023-04-05T08:33:26.244Z,3.10
2023-04-05T08:35:54.176Z,2.77
2023-04-05T08:38:27.749Z,2.57
2023-04-05T08:40:55.875Z,2.87
2023-04-05T08:43:34.713Z,2.47
2023-04-05T08:46:03.600Z,2.70
2023-04-05T08:48:33.567Z,2.67
2023-04-05T08:51:01.618Z,2.70
2023-04-05T08:53:30.259Z,3.20
2023-04-05T08:55:58.758Z,2.60
2023-04-05T08:58:26.939Z,2.77
2023-04-05T09:00:55.204Z,2.60
2023-04-05T09:03:24.216Z,3.10
2023-04-05T09:05:54.680Z,2.73
2023-04-05T09:08:23.903Z,3.03
2023-04-05T09:10:52.679Z,2.63
2023-04-05T09:13:21.268Z,2.70
2023-04-05T09:15:49.819Z,2.60
2023-04-05T09:18:26.280Z,2.90
2023-04-05T09:21:04.162Z,2.77
2023-04-05T09:23:32.248Z,2.73
2023-04-05T09:26:00.291Z,2.73
2023-04-05T09:28:42.677Z,3.40
2023-04-05T09:31:10.951Z,2.50
2023-04-05T09:33:39.395Z,2.97
2023-04-05T09:36:09.404Z,2.90
2023-04-05T09:38:47.698Z,2.83
2023-04-05T09:41:15.713Z,2.73
2023-04-05T09:43:44.160Z,2.67
2023-04-05T09:46:31.716Z,2.90
2023-04-05T09:48:59.838Z,2.60
2023-04-05T09:51:35.448Z,2.87
2023-04-05T09:54:05.538Z,2.20
2023-04-05T09:56:37.764Z,2.70
2023-04-05T09:59:09.664Z,2.70
2023-04-05T10:01:41.005Z,2.63
2023-04-05T10:04:10.007Z,2.70
2023-04-05T10:06:40.804Z,2.77
2023-04-05T10:09:09.818Z,3.00
2023-04-05T10:11:38.917Z,2.90
2023-04-05T10:14:08.067Z,2.67
2023-04-05T10:16:39.270Z,2.63
2023-04-05T10:19:11.869Z,3.00
2023-04-05T10:21:42.906Z,2.47
2023-04-05T10:24:18.588Z,2.77
2023-04-05T10:26:50.529Z,2.63
2023-04-05T10:29:22.199Z,2.50
2023-04-05T10:31:53.190Z,2.87
2023-04-05T10:34:27.500Z,2.60
2023-04-05T10:37:00.004Z,2.80
2023-04-05T10:39:29.650Z,3.00
2023-04-05T10:44:45.111Z,2.80
2023-04-05T10:47:17.416Z,2.73
2023-04-05T10:49:47.923Z,2.50
2023-04-05T10:52:18.034Z,2.77
2023-04-05T10:54:46.123Z,2.77
2023-04-05T10:57:14.540Z,2.83
2023-04-05T10:59:45.591Z,2.90
2023-04-05T11:02:14.406Z,3.07
2023-04-05T11:04:42.996Z,3.00
2023-04-05T11:07:15.540Z,3.53
2023-04-05T11:09:54.979Z,3.20
2023-04-05T11:13:20.968Z,3.30
2023-04-05T11:16:12.308Z,2.50
2023-04-05T11:18:46.385Z,2.57
2023-04-05T11:21:22.305Z,2.70
2023-04-05T11:24:07.250Z,3.50
2023-04-05T11:26:57.708Z,3.00
2023-04-05T11:29:51.060Z,3.07
2023-04-05T11:32:19.466Z,2.80
2023-04-05T11:35:00.033Z,2.70
2023-04-05T11:38:08.566Z,2.70
2023-04-05T11:40:39.568Z,2.80
2023-04-05T11:43:10.450Z,3.83
2023-04-05T11:45:39.653Z,3.40
2023-04-05T11:48:09.420Z,3.13
2023-04-05T11:50:38.327Z,3.03
2023-04-05T11:53:13.177Z,3.13
2023-04-05T11:55:43.567Z,3.20
2023-04-05T11:58:17.335Z,3.37
2023-04-05T12:00:47.230Z,2.90
2023-04-05T12:03:16.339Z,2.67
2023-04-05T12:05:48.934Z,2.83
2023-04-05T12:08:17.205Z,3.13
2023-04-05T12:10:45.843Z,4.73
2023-04-05T12:13:13.925Z,8.87
2023-04-05T12:15:43.745Z,6.73
2023-04-05T12:18:16.038Z,5.67
2023-04-05T12:20:44.142Z,4.60
2023-04-05T12:23:12.252Z,4.17
2023-04-05T12:25:42.924Z,3.37
2023-04-05T12:28:11.962Z,3.83
2023-04-05T12:30:51.486Z,3.10
2023-04-05T12:33:28.507Z,3.30
2023-04-05T12:35:56.801Z,2.93
2023-04-05T12:38:27.521Z,2.90
2023-04-05T12:40:55.796Z,2.80
2023-04-05T12:43:24.417Z,3.10
2023-04-05T12:45:56.735Z,3.20
2023-04-05T12:48:26.969Z,2.80
2023-04-05T12:50:55.317Z,2.70
2023-04-05T12:53:25.557Z,2.83
2023-04-05T12:55:55.267Z,3.07
2023-04-05T12:58:25.121Z,3.10
2023-04-05T13:00:53.286Z,3.00
2023-04-05T13:03:23.815Z,3.30
2023-04-05T13:05:52.099Z,2.90
2023-04-05T13:08:20.587Z,3.33
2023-04-05T13:10:49.656Z,3.30
2023-04-05T13:13:18.693Z,2.97
2023-04-05T13:15:47.375Z,3.00
2023-04-05T13:18:16.375Z,2.57
2023-04-05T13:20:46.204Z,2.43
2023-04-05T13:23:14.435Z,2.70
2023-04-05T13:25:43.606Z,2.43
2023-04-05T13:28:12.018Z,2.70
2023-04-05T13:30:40.196Z,2.67
2023-04-05T13:33:08.319Z,2.83
2023-04-05T13:35:36.602Z,2.70
2023-04-05T13:38:06.384Z,2.70
2023-04-05T13:40:34.503Z,3.40
2023-04-05T13:43:02.653Z,2.50
2023-04-05T13:45:31.476Z,2.73
2023-04-05T13:47:59.652Z,2.53
2023-04-05T13:50:27.735Z,2.57
2023-04-05T13:52:55.804Z,2.53
2023-04-05T13:55:25.195Z,2.87
2023-04-05T13:57:53.302Z,2.50
2023-04-05T14:00:21.744Z,2.93
2023-04-05T14:02:50.151Z,2.93
2023-04-05T14:05:18.644Z,2.90
2023-04-05T14:07:46.834Z,2.60
2023-04-05T14:10:15.161Z,2.73
2023-04-05T14:12:44.715Z,3.30
2023-04-05T14:15:13.407Z,3.57
2023-04-05T14:17:41.823Z,3.40
2023-04-05T14:20:10.514Z,3.53
2023-04-05T14:22:38.725Z,2.90
2023-04-05T14:25:08.389Z,3.13
2023-04-05T14:27:41.378Z,3.10
2023-04-05T14:30:12.457Z,2.87
2023-04-05T14:32:40.632Z,3.20
2023-04-05T14:35:10.187Z,2.80
2023-04-05T14:37:38.264Z,3.90
2023-04-05T14:40:07.239Z,3.20
2023-04-05T14:42:47.516Z,2.93
2023-04-05T14:45:18.631Z,3.10
2023-04-05T14:47:46.919Z,3.57
2023-04-05T14:50:15.394Z,3.23
2023-04-05T14:52:43.525Z,3.20
2023-04-05T14:55:13.492Z,3.10
2023-04-05T14:57:41.929Z,3.30
2023-04-05T15:00:11.665Z,3.20
2023-04-05T15:02:41.485Z,2.90
2023-04-05T15:05:10.409Z,3.10
2023-04-05T15:07:38.737Z,3.27
2023-04-05T15:10:07.704Z,3.30
2023-04-05T15:12:35.836Z,2.83
2023-04-05T15:15:04.029Z,3.00
2023-04-05T15:17:32.239Z,2.80
2023-04-05T15:20:01.674Z,3.43
2023-04-05T15:22:29.872Z,3.20
2023-04-05T15:24:59.077Z,3.03
2023-04-05T15:27:27.214Z,3.00
2023-04-05T15:29:55.369Z,2.97
2023-04-05T15:32:23.618Z,3.00
2023-04-05T15:34:51.822Z,3.13
2023-04-05T15:37:21.384Z,2.73
2023-04-05T15:39:49.568Z,3.13
2023-04-05T15:42:18.742Z,3.40
2023-04-05T15:44:46.968Z,3.03
2023-04-05T15:47:15.120Z,3.00
2023-04-05T15:49:44.131Z,3.40
2023-04-05T15:52:12.611Z,3.63
2023-04-05T15:54:44.271Z,3.50
2023-04-05T15:57:12.451Z,2.83
2023-04-05T15:59:40.880Z,3.67
2023-04-05T16:02:09.656Z,3.33
2023-04-05T16:04:39.312Z,3.43
2023-04-05T16:07:07.745Z,3.23
2023-04-05T16:09:35.917Z,3.57
2023-04-05T16:12:05.732Z,3.90
2023-04-05T16:14:34.386Z,3.63
2023-04-05T16:17:02.836Z,3.47
2023-04-05T16:19:31.558Z,3.60
2023-04-05T16:22:00.164Z,3.47
2023-04-05T16:24:28.387Z,3.20
2023-04-05T16:26:56.892Z,3.50
2023-04-05T16:29:26.507Z,3.33
2023-04-05T16:31:54.947Z,3.60
2023-04-05T16:34:24.511Z,3.87
2023-04-05T16:36:52.629Z,3.33
2023-04-05T16:39:20.795Z,3.17
2023-04-05T16:41:48.955Z,3.47
2023-04-05T16:44:17.142Z,3.67
2023-04-05T16:46:47.308Z,3.30
2023-04-05T16:49:15.981Z,3.33
2023-04-05T16:51:44.142Z,3.30
2023-04-05T16:54:12.422Z,3.73
2023-04-05T16:56:41.587Z,3.87
2023-04-05T16:59:10.293Z,3.90
2023-04-05T17:01:38.927Z,4.50
2023-04-05T17:04:08.542Z,5.23
2023-04-05T17:06:36.635Z,5.07
2023-04-05T17:09:05.259Z,4.53
2023-04-05T17:11:33.633Z,4.13
2023-04-05T17:14:01.718Z,4.00
2023-04-05T17:16:30.056Z,3.90
2023-04-05T17:18:58.143Z,4.13
2023-04-05T17:21:27.799Z,3.80
2023-04-05T17:23:56.044Z,4.13
2023-04-05T17:26:24.643Z,3.80
2023-04-05T17:28:52.787Z,4.27
2023-04-05T17:31:21.103Z,4.23
2023-04-05T17:33:49.656Z,3.97
2023-04-05T17:36:18.568Z,4.23
2023-04-05T17:38:48.412Z,4.50
2023-04-05T17:41:16.640Z,4.73
2023-04-05T17:43:44.829Z,4.50
2023-04-05T17:46:15.112Z,4.30
2023-04-05T17:48:43.442Z,4.33
2023-04-05T17:51:11.753Z,4.40
2023-04-05T17:53:39.957Z,4.60
2023-04-05T17:56:09.609Z,5.17
2023-04-05T17:58:37.961Z,6.00
2023-04-05T18:01:06.285Z,6.73
2023-04-05T18:03:34.660Z,6.87
2023-04-05T18:06:02.935Z,6.20
2023-04-05T18:08:31.051Z,6.23
2023-04-05T18:11:00.150Z,5.87
2023-04-05T18:13:29.950Z,7.60
2023-04-05T18:15:59.252Z,6.80
2023-04-05T18:18:28.807Z,5.23
2023-04-05T18:20:57.970Z,5.10
2023-04-05T18:23:26.129Z,5.70
2023-04-05T18:25:54.844Z,5.43
2023-04-05T18:28:23.898Z,4.73
2023-04-05T18:30:53.490Z,5.37
2023-04-05T18:33:22.636Z,4.80
2023-04-05T18:35:51.721Z,4.03
2023-04-05T18:38:19.974Z,4.10
2023-04-05T18:40:48.087Z,3.80
2023-04-05T18:43:16.314Z,4.30
2023-04-05T18:45:44.669Z,4.30
2023-04-05T18:48:14.247Z,3.90
2023-04-05T18:50:42.629Z,5.03
2023-04-05T18:53:10.780Z,4.50
2023-04-05T18:55:38.971Z,5.03
2023-04-05T18:58:07.093Z,5.30
2023-04-05T19:00:36.160Z,5.27
2023-04-05T19:03:05.086Z,5.27
2023-04-05T19:05:36.407Z,5.10
2023-04-05T19:08:05.670Z,4.80
2023-04-05T19:10:34.954Z,4.90
2023-04-05T19:13:04.506Z,4.77
2023-04-05T19:15:34.127Z,5.00
2023-04-05T19:18:03.958Z,5.00
2023-04-05T19:20:33.673Z,5.37
2023-04-05T19:23:05.230Z,4.67
2023-04-05T19:25:35.098Z,5.03
2023-04-05T19:28:05.683Z,5.40
2023-04-05T19:30:35.728Z,5.37
2023-04-05T19:33:05.570Z,5.70
2023-04-05T19:35:35.659Z,5.47
2023-04-05T19:38:07.713Z,5.70
2023-04-05T19:40:38.185Z,5.60
2023-04-05T19:43:08.166Z,5.70
2023-04-05T19:45:38.469Z,5.77
2023-04-05T19:48:36.769Z,6.03
2023-04-05T19:51:08.290Z,6.23
2023-04-05T19:53:50.520Z,5.63
2023-04-05T19:56:22.508Z,5.93
2023-04-05T19:58:53.329Z,5.77
2023-04-05T20:01:32.244Z,6.00
2023-04-05T20:04:02.815Z,5.40
2023-04-05T20:06:35.209Z,5.73
2023-04-05T20:09:08.773Z,5.80
2023-04-05T20:11:38.509Z,5.70
2023-04-05T20:14:08.165Z,5.87
2023-04-05T20:16:38.862Z,6.07
2023-04-05T20:19:09.708Z,6.43
2023-04-05T20:21:40.324Z,6.67
2023-04-05T20:24:12.220Z,6.97
2023-04-05T20:26:41.515Z,7.37
2023-04-05T20:29:12.484Z,7.33
2023-04-05T20:31:42.145Z,6.70
2023-04-05T20:34:12.613Z,6.47
2023-04-05T20:36:46.819Z,6.77
2023-04-05T20:39:18.099Z,6.83
2023-04-05T20:41:47.431Z,5.93
2023-04-05T20:44:16.687Z,7.00
2023-04-05T20:46:45.263Z,6.93
2023-04-05T20:49:14.077Z,7.57
2023-04-05T20:51:43.222Z,7.23
2023-04-05T20:54:12.133Z,8.27
2023-04-05T20:56:42.388Z,8.37
2023-04-05T20:59:11.086Z,8.50
2023-04-05T21:01:39.799Z,8.37
2023-04-05T21:04:07.976Z,8.87
2023-04-05T21:06:37.537Z,8.17
2023-04-05T21:09:06.111Z,8.37
2023-04-05T21:11:34.556Z,7.67
2023-04-05T21:14:04.251Z,8.17
2023-04-05T21:16:32.538Z,8.07
2023-04-05T21:19:00.892Z,7.87
2023-04-05T21:21:29.037Z,8.00
2023-04-05T21:23:57.131Z,7.87
2023-04-05T21:26:25.446Z,7.30
2023-04-05T21:28:53.541Z,7.73
2023-04-05T21:31:23.076Z,6.77
2023-04-05T21:33:51.137Z,7.53
2023-04-05T21:36:19.299Z,6.97
2023-04-05T21:38:47.527Z,7.60
2023-04-05T21:41:15.726Z,7.53
2023-04-05T21:43:43.814Z,7.40
2023-04-05T21:46:12.268Z,7.73
2023-04-05T21:48:41.774Z,7.00
2023-04-05T21:51:09.997Z,7.90
2023-04-05T21:53:38.105Z,7.70
2023-04-05T21:56:06.539Z,7.80
2023-04-05T21:58:34.751Z,7.30
2023-04-05T22:01:02.872Z,7.10
2023-04-05T22:03:31.114Z,7.87
2023-04-05T22:06:02.397Z,7.30
2023-04-05T22:08:30.537Z,7.50
2023-04-05T22:10:58.830Z,6.73
2023-04-05T22:13:26.982Z,6.40
2023-04-05T22:15:55.188Z,6.90
2023-04-05T22:18:25.519Z,6.20
2023-04-05T22:20:53.809Z,5.87
2023-04-05T22:23:23.455Z,5.87
2023-04-05T22:25:53.309Z,5.77
2023-04-05T22:28:21.784Z,5.53
2023-04-05T22:30:50.003Z,5.50
2023-04-05T22:33:18.217Z,5.77
2023-04-05T22:35:46.466Z,5.53
2023-04-05T22:38:14.582Z,5.67
2023-04-05T22:40:45.442Z,5.27
2023-04-05T22:43:13.709Z,5.30
2023-04-05T22:45:41.905Z,4.43
2023-04-05T22:48:10.066Z,4.30
2023-04-05T22:50:38.295Z,4.57
2023-04-05T22:53:06.462Z,4.47
2023-04-05T22:55:34.621Z,3.87
2023-04-05T22:58:04.115Z,4.33
2023-04-05T23:00:32.376Z,3.83
2023-04-05T23:03:00.835Z,3.40
2023-04-05T23:05:28.937Z,3.33
2023-04-05T23:07:57.110Z,3.63
2023-04-05T23:10:25.487Z,3.40
2023-04-05T23:12:53.700Z,3.43
2023-04-05T23:15:23.254Z,3.40
2023-04-05T23:17:51.803Z,3.30
2023-04-05T23:20:19.934Z,2.97
2023-04-05T23:22:48.102Z,2.80
2023-04-05T23:25:16.289Z,2.50
2023-04-05T23:27:44.496Z,2.70
2023-04-05T23:30:13.613Z,2.13
2023-04-05T23:32:43.129Z,2.47
2023-04-05T23:35:11.427Z,2.73
2023-04-05T23:37:39.622Z,2.03
2023-04-05T23:40:08.996Z,2.30
2023-04-05T23:42:37.201Z,2.10
2023-04-05T23:45:09.017Z,2.30
2023-04-05T23:47:38.546Z,2.20
2023-04-05T23:50:10.103Z,2.20
2023-04-05T23:52:38.190Z,2.23
2023-04-05T23:55:06.896Z,2.00
2023-04-05T23:57:35.075Z,2.27
